createdAt,value
2023-04-11T00:00:59.862Z,5.60
2023-04-11T00:03:28.969Z,6.03
2023-04-11T00:05:57.355Z,6.15
2023-04-11T00:08:27.238Z,5.74
2023-04-11T00:10:55.371Z,5.87
2023-04-11T00:13:24.200Z,5.77
2023-04-11T00:15:55.932Z,5.88
2023-04-11T00:18:25.921Z,5.54
2023-04-11T00:20:54.135Z,5.80
2023-04-11T00:23:22.264Z,5.80
2023-04-11T00:25:51.883Z,5.72
2023-04-11T00:28:20.057Z,5.87
2023-04-11T00:30:48.227Z,5.83
2023-04-11T00:33:16.731Z,5.63
2023-04-11T00:35:45.888Z,5.67
2023-04-11T00:38:14.104Z,5.63
2023-04-11T00:40:42.348Z,5.50
2023-04-11T00:43:11.921Z,5.67
2023-04-11T00:45:40.155Z,5.76
2023-04-11T00:48:08.559Z,5.58
2023-04-11T00:50:41.369Z,5.44
2023-04-11T00:53:11.075Z,5.49
2023-04-11T00:55:39.314Z,5.42
2023-04-11T00:58:09.090Z,5.60
2023-04-11T01:00:38.930Z,5.55
2023-04-11T01:03:08.567Z,5.53
2023-04-11T01:05:37.724Z,5.22
2023-04-11T01:08:06.419Z,5.61
2023-04-11T01:10:34.851Z,5.47
2023-04-11T01:13:03.441Z,5.45
2023-04-11T01:15:31.964Z,5.49
2023-04-11T01:18:02.117Z,5.60
2023-04-11T01:20:31.918Z,5.48
2023-04-11T01:23:02.867Z,5.52
2023-04-11T01:25:32.471Z,5.37
2023-04-11T01:28:00.739Z,5.25
2023-04-11T01:30:28.944Z,5.06
2023-04-11T01:32:57.232Z,5.00
2023-04-11T01:35:25.663Z,4.33
2023-04-11T01:37:54.116Z,4.96
2023-04-11T01:40:23.891Z,5.20
2023-04-11T01:42:54.155Z,5.22
2023-04-11T01:45:23.317Z,5.16
2023-04-11T01:47:53.007Z,2.65
2023-04-11T01:50:21.287Z,4.51
2023-04-11T01:52:49.774Z,5.24
2023-04-11T01:55:18.329Z,4.55
2023-04-11T01:57:46.493Z,4.99
2023-04-11T02:00:17.294Z,5.19
2023-04-11T02:02:45.596Z,5.12
2023-04-11T02:05:14.001Z,5.14
2023-04-11T02:07:42.266Z,5.18
2023-04-11T02:10:10.883Z,5.17
2023-04-11T02:12:39.051Z,4.99
2023-04-11T02:15:08.849Z,4.83
2023-04-11T02:17:45.179Z,5.16
2023-04-11T02:20:14.399Z,4.88
2023-04-11T02:22:42.827Z,5.10
2023-04-11T02:25:11.207Z,5.00
2023-04-11T02:27:39.487Z,5.23
2023-04-11T02:30:08.825Z,5.29
2023-04-11T02:32:39.369Z,5.28
2023-04-11T02:35:08.257Z,5.26
2023-04-11T02:37:36.537Z,5.20
2023-04-11T02:40:05.470Z,5.09
2023-04-11T02:42:33.622Z,4.94
2023-04-11T02:45:01.923Z,4.93
2023-04-11T02:47:30.131Z,3.84
2023-04-11T02:49:59.855Z,4.83
2023-04-11T02:52:28.028Z,4.80
2023-04-11T02:54:56.115Z,4.83
2023-04-11T02:57:24.282Z,4.76
2023-04-11T02:59:52.635Z,4.87
2023-04-11T03:02:21.189Z,4.90
2023-04-11T03:04:49.424Z,4.86
2023-04-11T03:07:19.015Z,4.92
2023-04-11T03:09:47.139Z,4.93
2023-04-11T03:12:16.191Z,5.00
2023-04-11T03:14:44.299Z,5.08
2023-04-11T03:17:12.394Z,5.01
2023-04-11T03:19:40.628Z,5.03
2023-04-11T03:22:08.811Z,4.94
2023-04-11T03:24:39.435Z,4.01
2023-04-11T03:27:07.725Z,5.01
2023-04-11T03:29:35.949Z,4.86
2023-04-11T03:32:04.186Z,4.86
2023-04-11T03:34:32.327Z,4.78
2023-04-11T03:37:00.551Z,4.78
2023-04-11T03:39:28.728Z,4.83
2023-04-11T03:41:58.348Z,4.16
2023-04-11T03:44:26.600Z,4.87
2023-04-11T03:46:54.825Z,4.85
2023-04-11T03:49:23.003Z,4.88
2023-04-11T03:51:51.242Z,4.74
2023-04-11T03:54:19.428Z,4.91
2023-04-11T03:56:47.782Z,4.72
2023-04-11T03:59:17.357Z,4.80
2023-04-11T04:01:45.522Z,4.82
2023-04-11T04:04:13.842Z,4.52
2023-04-11T04:06:42.005Z,4.98
2023-04-11T04:09:10.202Z,4.93
2023-04-11T04:11:38.379Z,4.85
2023-04-11T04:14:06.477Z,4.57
2023-04-11T04:16:36.077Z,4.68
2023-04-11T04:19:04.241Z,4.59
2023-04-11T04:21:33.016Z,4.74
2023-04-11T04:24:03.842Z,4.47
2023-04-11T04:26:32.271Z,4.78
2023-04-11T04:29:04.665Z,4.99
2023-04-11T04:31:34.770Z,5.07
2023-04-11T04:34:08.833Z,5.07
2023-04-11T04:36:46.467Z,5.04
2023-04-11T04:39:18.128Z,4.49
2023-04-11T04:41:48.742Z,4.98
2023-04-11T04:44:17.506Z,4.23
2023-04-11T04:46:45.935Z,4.36
2023-04-11T04:49:15.767Z,4.75
2023-04-11T04:51:44.345Z,4.72
2023-04-11T04:54:12.697Z,4.68
2023-04-11T04:56:41.613Z,4.72
2023-04-11T04:59:14.671Z,4.80
2023-04-11T05:01:43.138Z,4.94
2023-04-11T05:04:11.635Z,4.95
2023-04-11T05:06:41.441Z,4.92
2023-04-11T05:09:10.071Z,5.04
2023-04-11T05:11:38.286Z,4.76
2023-04-11T05:14:06.701Z,5.16
2023-04-11T05:16:35.029Z,5.18
2023-04-11T05:19:03.658Z,5.25
2023-04-11T05:21:31.790Z,5.31
2023-04-11T05:24:01.494Z,5.37
2023-04-11T05:26:30.037Z,5.43
2023-04-11T05:28:58.277Z,5.49
2023-04-11T05:31:27.017Z,5.53
2023-04-11T05:33:55.309Z,5.53
2023-04-11T05:36:23.937Z,5.44
2023-04-11T05:38:52.320Z,5.70
2023-04-11T05:41:21.961Z,5.79
2023-04-11T05:43:50.211Z,5.90
2023-04-11T05:46:19.168Z,5.98
2023-04-11T05:48:47.409Z,6.12
2023-04-11T05:51:15.658Z,6.17
2023-04-11T05:53:44.157Z,6.08
2023-04-11T05:56:12.997Z,6.08
2023-04-11T05:58:44.453Z,6.28
2023-04-11T06:01:18.391Z,6.14
2023-04-11T06:03:47.228Z,6.76
2023-04-11T06:06:15.910Z,6.96
2023-04-11T06:08:44.320Z,7.08
2023-04-11T06:11:12.500Z,7.05
2023-04-11T06:13:42.278Z,6.97
2023-04-11T06:16:11.051Z,6.81
2023-04-11T06:18:39.247Z,6.84
2023-04-11T06:21:07.633Z,6.93
2023-04-11T06:23:35.901Z,7.10
2023-04-11T06:28:33.510Z,6.86
2023-04-11T06:31:03.496Z,7.02
2023-04-11T06:33:31.784Z,7.25
2023-04-11T06:35:59.969Z,7.28
2023-04-11T06:38:28.289Z,7.25
2023-04-11T06:40:56.552Z,7.35
2023-04-11T06:43:24.868Z,7.40
2023-04-11T06:45:53.147Z,7.35
2023-04-11T06:48:22.769Z,7.51
2023-04-11T06:50:51.104Z,7.55
2023-04-11T06:53:19.293Z,7.61
2023-04-11T06:55:49.945Z,7.64
2023-04-11T06:58:18.345Z,7.69
2023-04-11T07:00:46.591Z,7.59
2023-04-11T07:03:15.160Z,7.65
2023-04-11T07:05:44.859Z,7.65
2023-04-11T07:08:13.059Z,7.79
2023-04-11T07:10:41.356Z,7.89
2023-04-11T07:13:09.437Z,7.25
2023-04-11T07:15:37.818Z,8.05
2023-04-11T07:18:06.154Z,8.20
2023-04-11T07:20:35.415Z,8.38
2023-04-11T07:23:05.044Z,8.54
2023-04-11T07:25:33.616Z,8.60
2023-04-11T07:28:02.047Z,8.72
2023-04-11T07:30:30.245Z,8.91
2023-04-11T07:32:58.487Z,9.10
2023-04-11T07:35:26.714Z,9.10
2023-04-11T07:37:54.886Z,9.31
2023-04-11T07:40:24.591Z,9.44
2023-04-11T07:42:52.778Z,9.63
2023-04-11T07:45:21.403Z,9.65
2023-04-11T07:47:49.665Z,9.59
2023-04-11T07:50:17.874Z,9.61
2023-04-11T07:52:45.986Z,9.40
2023-04-11T07:55:14.221Z,9.61
2023-04-11T07:57:43.899Z,9.54
2023-04-11T08:00:20.952Z,9.53
2023-04-11T08:02:49.337Z,9.76
2023-04-11T08:05:17.631Z,9.76
2023-04-11T08:07:45.795Z,9.89
2023-04-11T08:10:13.983Z,9.91
2023-04-11T08:12:43.700Z,10.11
2023-04-11T08:15:12.511Z,10.08
2023-04-11T08:17:41.250Z,10.04
2023-04-11T08:20:12.207Z,10.04
2023-04-11T08:22:41.785Z,10.03
2023-04-11T08:25:10.990Z,9.94
2023-04-11T08:27:39.317Z,10.08
2023-04-11T08:30:10.147Z,10.18
2023-04-11T08:32:38.547Z,10.20
2023-04-11T08:35:07.400Z,10.27
2023-04-11T08:37:35.572Z,10.34
2023-04-11T08:40:07.069Z,10.20
2023-04-11T08:42:36.369Z,10.18
2023-04-11T08:45:08.784Z,10.16
2023-04-11T08:47:38.540Z,10.16
2023-04-11T08:50:07.782Z,10.16
2023-04-11T08:52:36.985Z,10.23
2023-04-11T08:55:05.464Z,9.25
2023-04-11T08:57:35.085Z,9.58
2023-04-11T09:00:11.287Z,10.36
2023-04-11T09:02:56.626Z,10.38
2023-04-11T09:05:31.997Z,10.32
2023-04-11T09:08:01.778Z,10.42
2023-04-11T09:10:29.949Z,10.48
2023-04-11T09:12:58.450Z,10.51
2023-04-11T09:15:28.664Z,10.69
2023-04-11T09:18:00.616Z,10.91
2023-04-11T09:20:30.644Z,10.90
2023-04-11T09:23:00.074Z,11.15
2023-04-11T09:25:28.760Z,11.20
2023-04-11T09:28:09.906Z,11.26
2023-04-11T09:30:38.129Z,11.01
2023-04-11T09:33:25.726Z,11.12
2023-04-11T09:35:55.142Z,11.14
2023-04-11T09:38:31.243Z,11.23
2023-04-11T09:40:59.946Z,11.25
2023-04-11T09:43:28.196Z,11.35
2023-04-11T09:46:18.469Z,11.42
2023-04-11T09:48:48.987Z,11.35
2023-04-11T09:51:34.348Z,11.22
2023-04-11T09:54:04.890Z,11.26
2023-04-11T09:56:35.184Z,11.32
2023-04-11T09:59:04.395Z,11.46
2023-04-11T10:01:32.725Z,11.48
2023-04-11T10:04:02.315Z,11.58
2023-04-11T10:06:35.001Z,11.29
2023-04-11T10:09:08.656Z,11.73
2023-04-11T10:11:37.159Z,11.59
2023-04-11T10:14:05.453Z,11.70
2023-04-11T10:16:34.661Z,11.72
2023-04-11T10:19:29.146Z,11.81
2023-04-11T10:21:57.627Z,11.82
2023-04-11T10:24:26.835Z,11.99
2023-04-11T10:26:56.304Z,11.58
2023-04-11T10:29:53.189Z,12.17
2023-04-11T10:32:23.774Z,12.42
2023-04-11T10:35:31.274Z,12.71
2023-04-11T10:38:00.851Z,12.70
2023-04-11T10:40:29.094Z,13.12
2023-04-11T10:42:57.590Z,13.35
2023-04-11T10:45:27.245Z,13.60
2023-04-11T10:48:16.308Z,13.91
2023-04-11T10:50:45.403Z,14.11
2023-04-11T10:53:38.849Z,14.16
2023-04-11T10:56:07.606Z,14.39
2023-04-11T10:58:38.875Z,14.48
2023-04-11T11:01:31.392Z,14.36
2023-04-11T11:04:06.322Z,14.30
2023-04-11T11:06:46.097Z,14.28
2023-04-11T11:09:24.577Z,14.19
2023-04-11T11:12:07.923Z,14.57
2023-04-11T11:14:36.633Z,14.52
2023-04-11T11:17:05.421Z,14.30
2023-04-11T11:19:33.797Z,14.46
2023-04-11T11:22:04.171Z,14.76
2023-04-11T11:24:34.057Z,14.47
2023-04-11T11:27:02.213Z,15.13
2023-04-11T11:29:37.044Z,15.04
2023-04-11T11:32:06.018Z,14.99
2023-04-11T11:34:36.214Z,15.15
2023-04-11T11:37:05.532Z,15.28
2023-04-11T11:39:36.112Z,15.21
2023-04-11T11:42:04.674Z,15.33
2023-04-11T11:44:32.983Z,15.28
2023-04-11T11:47:05.546Z,15.26
2023-04-11T11:49:47.050Z,15.06
2023-04-11T11:52:33.083Z,14.88
2023-04-11T11:55:06.864Z,14.80
2023-04-11T11:57:36.757Z,14.71
2023-04-11T12:00:10.561Z,14.87
2023-04-11T12:02:42.438Z,14.96
2023-04-11T12:05:13.210Z,15.09
2023-04-11T12:07:41.826Z,15.30
2023-04-11T12:10:16.616Z,15.42
2023-04-11T12:12:53.142Z,15.42
2023-04-11T12:15:23.867Z,14.92
2023-04-11T12:17:53.861Z,15.62
2023-04-11T12:20:25.446Z,15.87
2023-04-11T12:22:54.817Z,15.99
2023-04-11T12:25:25.814Z,16.13
2023-04-11T12:27:54.143Z,15.97
2023-04-11T12:30:22.396Z,16.06
2023-04-11T12:32:50.713Z,16.08
2023-04-11T12:35:19.064Z,16.15
2023-04-11T12:37:47.442Z,16.03
2023-04-11T12:40:15.727Z,16.26
2023-04-11T12:42:56.372Z,16.40
2023-04-11T12:45:25.554Z,16.23
2023-04-11T12:47:54.938Z,16.60
2023-04-11T12:50:24.501Z,16.66
2023-04-11T12:52:55.585Z,16.61
2023-04-11T12:55:24.721Z,16.35
2023-04-11T12:57:54.404Z,16.42
2023-04-11T13:00:22.962Z,16.36
2023-04-11T13:02:51.382Z,16.40
2023-04-11T13:05:19.955Z,16.54
2023-04-11T13:07:48.429Z,16.60
2023-04-11T13:10:17.362Z,16.57
2023-04-11T13:12:46.669Z,16.84
2023-04-11T13:15:17.792Z,17.16
2023-04-11T13:17:47.349Z,17.35
2023-04-11T13:20:15.558Z,17.40
2023-04-11T13:22:44.722Z,16.97
2023-04-11T13:25:13.356Z,16.86
2023-04-11T13:27:42.675Z,16.93
2023-04-11T13:30:12.004Z,16.88
2023-04-11T13:32:41.860Z,16.80
2023-04-11T13:35:10.523Z,17.28
2023-04-11T13:37:38.631Z,17.88
2023-04-11T13:40:10.924Z,18.59
2023-04-11T13:42:39.094Z,18.34
2023-04-11T13:45:08.144Z,18.90
2023-04-11T13:47:38.378Z,18.81
2023-04-11T13:50:10.363Z,18.60
2023-04-11T13:52:38.793Z,18.38
2023-04-11T13:55:07.847Z,18.01
2023-04-11T13:57:36.190Z,17.47
2023-04-11T14:00:10.272Z,16.48
2023-04-11T14:02:38.780Z,16.90
2023-04-11T14:05:10.254Z,16.67
2023-04-11T14:07:38.399Z,16.57
2023-04-11T14:10:07.359Z,16.54
2023-04-11T14:12:35.543Z,16.73
2023-04-11T14:15:04.819Z,16.78
2023-04-11T14:17:33.080Z,16.83
2023-04-11T14:20:01.426Z,16.92
2023-04-11T14:22:30.973Z,16.95
2023-04-11T14:24:59.245Z,17.01
2023-04-11T14:27:27.483Z,16.98
2023-04-11T14:29:55.642Z,16.86
2023-04-11T14:32:23.857Z,16.97
2023-04-11T14:34:53.858Z,16.84
2023-04-11T14:37:22.071Z,16.32
2023-04-11T14:39:51.660Z,16.68
2023-04-11T14:42:20.076Z,16.94
2023-04-11T14:44:50.308Z,17.05
2023-04-11T14:47:18.509Z,17.27
2023-04-11T14:49:46.867Z,17.30
2023-04-11T14:52:14.984Z,17.47
2023-04-11T14:54:44.018Z,17.42
2023-04-11T14:57:13.639Z,17.20
2023-04-11T14:59:43.305Z,16.70
2023-04-11T15:02:12.127Z,16.44
2023-04-11T15:04:40.426Z,16.26
2023-04-11T15:07:08.878Z,16.07
2023-04-11T15:09:37.036Z,15.80
2023-04-11T15:12:05.574Z,15.64
2023-04-11T15:14:35.150Z,15.10
2023-04-11T15:17:03.320Z,15.38
2023-04-11T15:19:31.510Z,15.22
2023-04-11T15:21:59.606Z,15.07
2023-04-11T15:24:27.787Z,14.80
2023-04-11T15:26:56.902Z,14.68
2023-04-11T15:29:25.620Z,14.57
2023-04-11T15:31:55.212Z,14.48
2023-04-11T15:34:23.500Z,14.18
2023-04-11T15:36:51.613Z,14.16
2023-04-11T15:39:19.869Z,13.48
2023-04-11T15:41:48.642Z,14.00
2023-04-11T15:44:16.748Z,13.77
2023-04-11T15:46:46.951Z,13.07
2023-04-11T15:49:19.425Z,13.63
2023-04-11T15:51:47.738Z,13.50
2023-04-11T15:54:15.928Z,13.45
2023-04-11T15:56:44.150Z,13.36
2023-04-11T15:59:13.116Z,13.29
2023-04-11T16:01:41.713Z,13.08
2023-04-11T16:04:11.428Z,12.65
2023-04-11T16:06:41.199Z,13.16
2023-04-11T16:09:09.260Z,13.12
2023-04-11T16:11:40.047Z,13.07
2023-04-11T16:14:08.318Z,12.92
2023-04-11T16:16:36.498Z,12.60
2023-04-11T16:19:04.692Z,12.38
2023-04-11T16:21:32.796Z,12.35
2023-04-11T16:24:02.341Z,12.23
2023-04-11T16:26:30.623Z,12.11
2023-04-11T16:28:58.726Z,12.05
2023-04-11T16:31:27.291Z,11.89
2023-04-11T16:33:56.107Z,11.92
2023-04-11T16:36:24.936Z,11.80
2023-04-11T16:38:53.255Z,12.02
2023-04-11T16:41:22.871Z,12.05
2023-04-11T16:43:51.017Z,11.99
2023-04-11T16:46:19.451Z,11.95
2023-04-11T16:48:47.759Z,12.12
2023-04-11T16:51:18.466Z,12.12
2023-04-11T16:53:47.507Z,12.17
2023-04-11T16:56:15.650Z,12.20
2023-04-11T16:58:45.391Z,11.95
2023-04-11T17:01:13.961Z,12.20
2023-04-11T17:03:43.832Z,12.19
2023-04-11T17:06:16.050Z,12.17
2023-04-11T17:08:45.882Z,12.22
2023-04-11T17:11:14.354Z,12.16
2023-04-11T17:13:45.783Z,12.14
2023-04-11T17:16:14.179Z,12.15
2023-04-11T17:18:42.345Z,12.15
2023-04-11T17:21:10.805Z,12.04
2023-04-11T17:23:42.564Z,11.60
2023-04-11T17:26:11.389Z,12.12
2023-04-11T17:28:39.705Z,12.09
2023-04-11T17:31:14.057Z,11.72
2023-04-11T17:33:42.856Z,11.72
2023-04-11T17:36:12.735Z,10.91
2023-04-11T17:38:42.237Z,11.88
2023-04-11T17:41:15.035Z,11.69
2023-04-11T17:43:43.821Z,11.48
2023-04-11T17:46:13.859Z,11.59
2023-04-11T17:48:42.263Z,11.31
2023-04-11T17:51:10.530Z,11.65
2023-04-11T17:53:38.706Z,11.43
2023-04-11T17:56:07.833Z,11.43
2023-04-11T17:58:36.113Z,10.83
2023-04-11T18:01:05.057Z,11.18
2023-04-11T18:03:35.470Z,11.12
2023-04-11T18:06:03.972Z,10.82
2023-04-11T18:08:49.131Z,10.86
2023-04-11T18:11:17.686Z,10.73
2023-04-11T18:13:48.347Z,10.97
2023-04-11T18:16:18.277Z,10.84
2023-04-11T18:18:49.019Z,10.80
2023-04-11T18:21:17.671Z,10.02
2023-04-11T18:23:46.011Z,10.80
2023-04-11T18:26:14.155Z,10.23
2023-04-11T18:28:42.343Z,10.47
2023-04-11T18:31:11.182Z,10.23
2023-04-11T18:33:58.889Z,10.05
2023-04-11T18:36:28.896Z,9.81
2023-04-11T18:38:57.256Z,10.04
2023-04-11T18:41:26.283Z,9.82
2023-04-11T18:43:54.507Z,9.84
2023-04-11T18:46:22.740Z,9.78
2023-04-11T18:48:50.982Z,9.61
2023-04-11T18:51:20.575Z,9.68
2023-04-11T18:53:50.178Z,9.45
2023-04-11T18:56:18.395Z,9.56
2023-04-11T18:58:49.302Z,9.30
2023-04-11T19:01:19.355Z,9.52
2023-04-11T19:04:15.529Z,9.50
2023-04-11T19:06:53.303Z,9.47
2023-04-11T19:09:23.420Z,9.57
2023-04-11T19:11:52.997Z,9.18
2023-04-11T19:14:21.620Z,9.15
2023-04-11T19:24:34.532Z,9.09
2023-04-11T19:27:31.130Z,9.14
2023-04-11T19:30:02.477Z,9.09
2023-04-11T19:32:32.244Z,9.05
2023-04-11T19:35:02.320Z,9.13
2023-04-11T19:37:30.943Z,9.10
2023-04-11T19:40:01.681Z,9.03
2023-04-11T19:42:33.942Z,9.02
2023-04-11T19:45:05.468Z,9.15
2023-04-11T19:47:35.232Z,8.29
2023-04-11T19:50:04.137Z,9.25
2023-04-11T19:53:40.176Z,9.40
2023-04-11T19:56:26.398Z,9.63
2023-04-11T19:58:55.136Z,10.06
2023-04-11T20:01:23.833Z,10.17
2023-04-11T20:03:53.806Z,10.05
2023-04-11T20:06:23.019Z,10.00
2023-04-11T20:08:51.930Z,10.12
2023-04-11T20:11:24.586Z,10.43
2023-04-11T20:13:53.919Z,10.89
2023-04-11T20:16:26.334Z,10.74
2023-04-11T20:18:55.231Z,11.11
2023-04-11T20:21:23.886Z,11.01
2023-04-11T20:23:53.184Z,10.75
2023-04-11T20:26:25.047Z,10.60
2023-04-11T20:28:53.430Z,10.57
2023-04-11T20:31:22.100Z,10.63
2023-04-11T20:33:51.024Z,10.70
2023-04-11T20:36:20.379Z,10.75
2023-04-11T20:38:48.836Z,10.66
2023-04-11T20:41:19.563Z,10.64
2023-04-11T20:43:49.470Z,10.54
2023-04-11T20:46:18.163Z,10.54
2023-04-11T20:48:46.644Z,10.59
2023-04-11T20:51:16.238Z,10.60
2023-04-11T20:53:44.914Z,10.52
2023-04-11T20:56:15.133Z,10.75
2023-04-11T20:58:46.248Z,10.77
2023-04-11T21:01:18.051Z,10.75
2023-04-11T21:03:47.249Z,10.68
2023-04-11T21:06:16.112Z,10.80
2023-04-11T21:08:44.494Z,10.67
2023-04-11T21:11:13.052Z,10.79
2023-04-11T21:13:43.266Z,10.86
2023-04-11T21:16:11.916Z,10.85
2023-04-11T21:18:41.943Z,10.82
2023-04-11T21:21:11.624Z,10.28
2023-04-11T21:23:40.562Z,10.64
2023-04-11T21:26:11.034Z,10.30
2023-04-11T21:28:39.551Z,10.51
2023-04-11T21:31:09.529Z,10.46
2023-04-11T21:33:38.245Z,10.29
2023-04-11T21:36:09.671Z,10.20
2023-04-11T21:38:38.185Z,10.15
2023-04-11T21:41:06.713Z,9.89
2023-04-11T21:43:35.656Z,9.77
2023-04-11T21:46:05.123Z,9.46
2023-04-11T21:48:37.401Z,9.73
2023-04-11T21:51:08.403Z,9.60
2023-04-11T21:53:37.204Z,9.39
2023-04-11T21:56:08.884Z,9.28
2023-04-11T21:58:40.144Z,9.17
2023-04-11T22:01:11.874Z,8.47
2023-04-11T22:03:42.166Z,8.80
2023-04-11T22:06:14.206Z,8.89
2023-04-11T22:08:50.457Z,8.74
2023-04-11T22:11:20.717Z,8.77
2023-04-11T22:13:51.548Z,8.65
2023-04-11T22:16:20.217Z,8.63
2023-04-11T22:18:49.424Z,8.47
2023-04-11T22:21:20.669Z,8.55
2023-04-11T22:23:54.679Z,8.45
2023-04-11T22:26:26.686Z,8.38
2023-04-11T22:28:55.888Z,8.62
2023-04-11T22:31:34.728Z,8.61
2023-04-11T22:34:03.781Z,8.67
2023-04-11T22:36:37.157Z,8.66
2023-04-11T22:39:07.167Z,8.24
2023-04-11T22:41:38.845Z,8.73
2023-04-11T22:44:07.596Z,8.44
2023-04-11T22:46:39.059Z,8.69
2023-04-11T22:49:10.021Z,8.03
2023-04-11T22:51:41.166Z,8.75
2023-04-11T22:54:09.884Z,8.87
2023-04-11T22:56:38.510Z,8.90
2023-04-11T22:59:07.044Z,8.93
2023-04-11T23:01:36.152Z,8.96
2023-04-11T23:04:05.065Z,6.27
2023-04-11T23:06:33.852Z,8.86
2023-04-11T23:09:04.350Z,9.04
2023-04-11T23:11:33.068Z,9.03
2023-04-11T23:14:02.536Z,8.97
2023-04-11T23:16:31.824Z,9.10
2023-04-11T23:19:01.617Z,9.00
2023-04-11T23:21:30.460Z,9.11
2023-04-11T23:23:59.902Z,9.15
2023-04-11T23:26:30.138Z,9.17
2023-04-11T23:28:58.838Z,9.16
2023-04-11T23:31:27.725Z,9.19
2023-04-11T23:33:57.144Z,9.06
2023-04-11T23:36:27.709Z,9.18
2023-04-11T23:38:56.942Z,9.25
2023-04-11T23:41:25.804Z,9.31
2023-04-11T23:43:56.379Z,9.10
2023-04-11T23:46:25.314Z,9.13
2023-04-11T23:48:54.756Z,9.08
2023-04-11T23:51:23.657Z,8.98
2023-04-11T23:53:52.569Z,8.90
2023-04-11T23:56:21.776Z,9.00
2023-04-11T23:58:50.787Z,8.95
